Porto Leone — 9V2203 — position and weather

sailwx.info

Track history (hours):
 
Tides and Currents Weather Stations Pressure Air Temp Water Temp Dewpoint Dewpoint Depression Visibility Wind Speed Wind Dir Waves Ship Positions

Porto Leone

Last reported at 2017-Oct-10 20:21 UTC. Time now 2017-Oct-19 23:48 UTC.
Position N 01°16' E 104°09'.
Warning: this ship's position is 9 days out of date.

Length 200 m; draft 13.6 m.

Type: Cargo ship. MMSI: 563735000.

Date/timePositionNaut miles runAvg speedWind from/ knotsBaromVisibWave heightAir tempDewpointWater temp
2017-Oct-10 20:21N 01°16' E 104°09'412.3
2017-Oct-10 20:00N 01°15' E 104°05'611.5
2017-Oct-10 19:30N 01°14' E 103°59'612.1
2017-Oct-10 19:00N 01°12' E 103°54'511.0
2017-Oct-10 18:30N 01°10' E 103°49'510.7
2017-Oct-10 18:00N 01°06' E 103°45'611.2
2017-Oct-10 17:30N 01°03' E 103°40'611.8
2017-Oct-10 17:01N 01°05' E 103°35'712.7
2017-Oct-10 16:30N 01°09' E 103°29'712.4
2017-Oct-10 15:58N 01°12' E 103°24'712.5
2017-Oct-10 15:26N 01°16' E 103°18'  
Track history (hours):
 
Tides and Currents Weather Stations Pressure Air Temp Water Temp Dewpoint Dewpoint Depression Visibility Wind Speed Wind Dir Waves Ship Positions

Porto Leone

Last reported at 2017-Oct-10 20:21 UTC. Time now 2017-Oct-19 23:48 UTC.
Position N 01°16' E 104°09'.
Warning: this ship's position is 9 days out of date.

Length 200 m; draft 13.6 m.

Type: Cargo ship. MMSI: 563735000.

Date/timePositionNaut miles runAvg speedWind from/ knotsBaromVisibWave heightAir tempDewpointWater temp
2017-Oct-10 20:21N 01°16' E 104°09'412.3
2017-Oct-10 20:00N 01°15' E 104°05'611.5
2017-Oct-10 19:30N 01°14' E 103°59'612.1
2017-Oct-10 19:00N 01°12' E 103°54'511.0
2017-Oct-10 18:30N 01°10' E 103°49'510.7
2017-Oct-10 18:00N 01°06' E 103°45'611.2
2017-Oct-10 17:30N 01°03' E 103°40'611.8
2017-Oct-10 17:01N 01°05' E 103°35'712.7
2017-Oct-10 16:30N 01°09' E 103°29'712.4
2017-Oct-10 15:58N 01°12' E 103°24'712.5
2017-Oct-10 15:26N 01°16' E 103°18'  

Dump ship's entire track history